Time;durP1;ratioP1;P1;durP2;ratioP2;P2;SDS_P1;SDS_P2;PMS_P1;PMS_P2;Temp;Humidity;BMP_temperature;BMP_pressure;BME280_temperature;BME280_humidity;BME280_pressure;Samples;Min_cycle;Max_cycle;Signal;HPM_P1;HPM_P2
2023/03/06 00:01:56;;;;;;;11.27;1.35;;;;;;;-0.03;100.00;99837.72;5035091;28;20064;-72
2023/03/06 00:04:21;;;;;;;5.05;2.08;;;;;;;0.01;100.00;99848.00;5027010;28;20044;-72
2023/03/06 00:06:47;;;;;;;5.82;2.35;;;;;;;-0.03;100.00;99829.03;5038841;28;20041;-73
2023/03/06 00:09:12;;;;;;;7.30;1.60;;;;;;;0.02;100.00;99847.03;5027905;28;20155;-71
2023/03/06 00:11:37;;;;;;;5.95;1.85;;;;;;;0.02;100.00;99832.13;5021379;28;20584;-72
2023/03/06 00:14:03;;;;;;;2.97;1.95;;;;;;;-0.02;100.00;99818.41;5041377;28;20472;-74
2023/03/06 00:16:28;;;;;;;5.88;2.03;;;;;;;-0.11;100.00;99803.38;5039443;28;20029;-74
2023/03/06 00:18:53;;;;;;;4.60;1.50;;;;;;;-0.10;100.00;99814.69;5023213;28;20041;-73
2023/03/06 00:21:19;;;;;;;3.97;1.47;;;;;;;-0.16;100.00;99813.38;5040776;28;20052;-72
2023/03/06 00:23:44;;;;;;;3.97;1.50;;;;;;;-0.23;100.00;99806.94;5040137;28;20283;-71
2023/03/06 00:26:09;;;;;;;6.80;1.80;;;;;;;-0.16;100.00;99829.13;5040164;28;20060;-72
2023/03/06 00:28:36;;;;;;;9.80;1.60;;;;;;;-0.28;100.00;99825.66;5039160;28;20323;-71
2023/03/06 00:31:02;;;;;;;9.25;1.90;;;;;;;-0.25;100.00;99842.94;5040303;28;20541;-72
2023/03/06 00:33:28;;;;;;;9.52;2.35;;;;;;;-0.22;100.00;99855.81;5038124;28;20654;-74
2023/03/06 00:35:53;;;;;;;6.40;1.85;;;;;;;-0.28;100.00;99846.63;5037596;28;20029;-73
2023/03/06 00:38:18;;;;;;;7.23;1.67;;;;;;;-0.33;100.00;99843.53;5024859;28;20126;-72
2023/03/06 00:40:44;;;;;;;4.88;1.55;;;;;;;-0.40;100.00;99825.72;5021308;28;20486;-71
2023/03/06 00:43:09;;;;;;;6.72;1.83;;;;;;;-0.49;100.00;99828.09;5023265;28;20028;-71
2023/03/06 00:45:35;;;;;;;9.82;1.85;;;;;;;-0.50;100.00;99838.69;5021105;28;20056;-71
2023/03/06 00:48:00;;;;;;;4.13;2.22;;;;;;;-0.50;100.00;99842.13;5026953;28;20500;-73
2023/03/06 00:50:26;;;;;;;12.05;2.33;;;;;;;-0.56;100.00;99837.38;5037821;28;20064;-71
2023/03/06 00:52:51;;;;;;;7.25;2.00;;;;;;;-0.69;100.00;99826.09;5040287;28;20395;-71
2023/03/06 00:55:17;;;;;;;4.05;2.17;;;;;;;-0.69;100.00;99826.09;5040634;28;20048;-72
2023/03/06 00:57:42;;;;;;;5.60;2.15;;;;;;;-0.67;100.00;99830.28;5039394;28;20048;-72
2023/03/06 01:00:10;;;;;;;7.50;3.10;;;;;;;-0.67;100.00;99834.69;5040720;28;20020;-74
2023/03/06 01:02:35;;;;;;;14.68;2.33;;;;;;;-0.77;100.00;99836.28;5037123;28;20330;-71
2023/03/06 01:05:01;;;;;;;12.73;2.50;;;;;;;-0.88;100.00;99821.38;5026425;28;20048;-73
2023/03/06 01:07:27;;;;;;;5.32;2.08;;;;;;;-1.14;100.00;99799.69;5041186;28;20375;-72
2023/03/06 01:09:52;;;;;;;5.20;2.20;;;;;;;-1.29;100.00;99792.00;5039840;28;20504;-72
2023/03/06 01:12:20;;;;;;;11.52;2.65;;;;;;;-1.24;100.00;99814.38;5025946;28;20091;-71
2023/03/06 01:14:45;;;;;;;4.07;1.92;;;;;;;-1.29;100.00;99810.31;5037828;28;20125;-72
2023/03/06 01:17:10;;;;;;;4.67;2.63;;;;;;;-1.22;100.00;99828.19;5039209;28;20063;-71
2023/03/06 01:19:36;;;;;;;5.90;2.60;;;;;;;-1.24;100.00;99824.84;5020458;28;20338;-71
2023/03/06 01:22:01;;;;;;;8.20;1.90;;;;;;;-1.20;100.00;99831.56;5026402;28;20524;-72
2023/03/06 01:24:27;;;;;;;7.80;2.10;;;;;;;-1.30;100.00;99826.97;5037273;28;20250;-71
2023/03/06 01:26:55;;;;;;;9.00;1.92;;;;;;;-1.40;100.00;99805.00;5039790;28;20028;-71
2023/03/06 01:29:20;;;;;;;6.63;2.00;;;;;;;-1.46;100.00;99804.59;5039755;28;20029;-71
2023/03/06 01:31:46;;;;;;;4.15;2.53;;;;;;;-1.62;100.00;99789.13;5020754;28;20034;-71
2023/03/06 01:34:11;;;;;;;6.65;2.13;;;;;;;-1.65;100.00;99795.44;5038840;28;20025;-71
2023/03/06 01:36:36;;;;;;;4.63;2.42;;;;;;;-1.74;100.00;99786.44;5020152;28;20676;-71
2023/03/06 01:39:02;;;;;;;27.75;3.05;;;;;;;-1.79;100.00;99785.91;5040231;28;20036;-72
2023/03/06 01:41:28;;;;;;;6.38;2.40;;;;;;;-1.83;100.00;99776.59;5020684;28;20037;-75
2023/03/06 01:43:53;;;;;;;5.90;1.98;;;;;;;-1.89;100.00;99776.22;5042939;28;20119;-72
2023/03/06 01:46:32;;;;;;;7.88;2.08;;;;;;;-1.88;100.00;99786.56;5042427;28;20057;-72
2023/03/06 01:49:15;;;;;;;9.77;2.65;;;;;;;-1.94;100.00;99779.97;5020333;28;20044;-71
2023/03/06 01:51:51;;;;;;;11.82;3.88;;;;;;;-1.94;100.00;99789.63;5025863;28;20121;-72
2023/03/06 01:54:25;;;;;;;8.02;2.22;;;;;;;-1.82;100.00;99804.47;5024354;28;20037;-71
2023/03/06 01:56:55;;;;;;;5.53;1.95;;;;;;;-1.79;100.00;99804.25;5043285;28;20457;-71
2023/03/06 01:59:22;;;;;;;6.15;2.88;;;;;;;-1.70;100.00;99814.06;5029369;28;20036;-72
2023/03/06 02:01:49;;;;;;;6.68;2.65;;;;;;;-1.71;100.00;99801.94;5041520;28;20025;-72
2023/03/06 02:04:16;;;;;;;13.77;3.92;;;;;;;-1.81;100.00;99790.41;5043840;28;20052;-72
2023/03/06 02:06:42;;;;;;;14.88;2.78;;;;;;;-1.87;100.00;99779.53;5023862;28;20029;-70
2023/03/06 02:09:09;;;;;;;5.65;2.05;;;;;;;-1.89;100.00;99784.06;5044254;28;20052;-74
2023/03/06 02:11:34;;;;;;;8.23;2.17;;;;;;;-1.93;100.00;99775.59;5023442;28;20563;-72
2023/03/06 02:14:00;;;;;;;7.13;2.85;;;;;;;-2.00;100.00;99764.69;5029618;28;20064;-71
2023/03/06 02:16:28;;;;;;;;;;;;;;;-1.97;100.00;99768.88;5028689;28;20106;-71
2023/03/06 02:18:54;;;;;;;3.70;1.88;;;;;;;-2.03;100.00;99758.88;5042151;28;20074;-74
2023/03/06 02:21:27;;;;;;;4.15;1.73;;;;;;;-2.06;100.00;99757.31;5023807;28;20497;-72
2023/03/06 02:24:25;;;;;;;5.40;1.67;;;;;;;-1.99;100.00;99749.84;5025271;28;20080;-73
2023/03/06 02:26:51;;;;;;;3.35;1.38;;;;;;;-1.96;100.00;99749.66;5025652;28;20095;-71
2023/03/06 02:29:23;;;;;;;3.42;1.35;;;;;;;-1.95;100.00;99751.31;5024167;28;20056;-72
2023/03/06 02:31:49;;;;;;;3.83;2.05;;;;;;;-2.01;100.00;99746.53;5040713;28;20050;-72
2023/03/06 02:34:14;;;;;;;9.68;2.13;;;;;;;-2.00;100.00;99753.41;5009728;28;20094;-72
2023/03/06 02:36:44;;;;;;;9.20;2.07;;;;;;;-1.97;100.00;99750.56;5027075;28;20205;-71
2023/03/06 02:39:13;;;;;;;2.90;1.55;;;;;;;-1.95;100.00;99752.13;5025430;28;20334;-72
2023/03/06 02:41:39;;;;;;;5.40;1.95;;;;;;;-1.89;100.00;99750.06;5023119;28;20044;-71
2023/03/06 02:44:06;;;;;;;6.63;2.65;;;;;;;-1.78;100.00;99763.19;5043234;28;20017;-72
2023/03/06 02:46:31;;;;;;;6.20;2.28;;;;;;;-1.83;100.00;99763.53;5022950;28;20035;-71
2023/03/06 02:48:57;;;;;;;4.20;1.83;;;;;;;-1.91;100.00;99752.78;5043154;28;20051;-71
2023/03/06 02:51:22;;;;;;;5.15;2.55;;;;;;;-1.88;100.00;99757.78;5042052;28;20124;-71
2023/03/06 02:53:48;;;;;;;9.20;3.92;;;;;;;-1.84;100.00;99764.47;5021269;28;20069;-74
2023/03/06 02:56:14;;;;;;;13.73;5.20;;;;;;;-1.79;100.00;99778.06;5040901;28;20063;-71
2023/03/06 02:58:41;;;;;;;12.35;6.15;;;;;;;-1.78;100.00;99782.38;5006926;28;20425;-71
2023/03/06 03:01:06;;;;;;;18.13;6.90;;;;;;;-1.75;100.00;99790.00;5041321;28;20045;-72
2023/03/06 03:03:33;;;;;;;15.85;6.93;;;;;;;-1.76;100.00;99798.78;5023023;28;20090;-74
2023/03/06 03:06:00;;;;;;;28.02;8.85;;;;;;;-1.78;100.00;99799.84;5028499;28;20017;-71
2023/03/06 03:08:28;;;;;;;18.92;8.52;;;;;;;-1.75;100.00;99802.25;5023283;28;20033;-71
2023/03/06 03:10:58;;;;;;;21.00;9.90;;;;;;;-1.63;100.00;99818.88;5041323;28;20029;-75
2023/03/06 03:13:27;;;;;;;29.90;11.45;;;;;;;-1.57;100.00;99816.69;5039680;28;20025;-72
2023/03/06 03:16:02;;;;;;;25.80;10.77;;;;;;;-1.42;100.00;99833.09;5040242;28;20116;-75
2023/03/06 03:18:28;;;;;;;27.02;12.55;;;;;;;-1.47;100.00;99822.09;5023216;28;20424;-74
2023/03/06 03:20:54;;;;;;;28.02;12.48;;;;;;;-1.45;100.00;99819.34;5040718;28;20017;-74
2023/03/06 03:23:19;;;;;;;24.25;11.15;;;;;;;-1.46;100.00;99821.16;5028091;28;20118;-72
2023/03/06 03:25:45;;;;;;;21.85;11.55;;;;;;;-1.39;100.00;99825.00;5040594;28;20064;-73
2023/03/06 03:28:11;;;;;;;26.48;11.55;;;;;;;-1.36;100.00;99826.56;5024036;28;20033;-72
2023/03/06 03:30:39;;;;;;;20.48;9.15;;;;;;;-1.36;100.00;99830.03;5040302;28;20037;-74
2023/03/06 03:33:05;;;;;;;22.63;10.57;;;;;;;-1.38;100.00;99813.59;5028246;28;20017;-71
2023/03/06 03:35:31;;;;;;;22.13;9.75;;;;;;;-1.34;100.00;99815.03;5026769;28;20029;-72
2023/03/06 03:37:56;;;;;;;22.27;10.50;;;;;;;-1.36;100.00;99805.63;5028630;28;20379;-72
2023/03/06 03:40:22;;;;;;;21.23;8.88;;;;;;;-1.27;100.00;99815.44;5027234;28;20029;-72
2023/03/06 03:42:49;;;;;;;21.00;10.35;;;;;;;-1.28;100.00;99798.06;5023386;28;20341;-71
2023/03/06 03:45:14;;;;;;;19.42;9.85;;;;;;;-1.33;100.00;99793.16;5027964;28;20385;-72
2023/03/06 03:47:40;;;;;;;17.90;8.32;;;;;;;-1.44;100.00;99781.78;5024111;28;20040;-72
2023/03/06 03:50:07;;;;;;;22.35;8.30;;;;;;;-1.47;100.00;99787.25;5040364;28;20133;-73
2023/03/06 03:52:33;;;;;;;20.23;8.93;;;;;;;-1.46;100.00;99787.09;5040635;28;20524;-74
2023/03/06 03:54:58;;;;;;;19.48;8.70;;;;;;;-1.46;100.00;99787.09;5040358;28;20033;-72
2023/03/06 03:57:24;;;;;;;22.67;9.20;;;;;;;-1.43;100.00;99784.25;5026729;28;20131;-72
2023/03/06 03:59:51;;;;;;;18.90;8.23;;;;;;;-1.40;100.00;99785.84;5023068;28;20040;-71
2023/03/06 04:02:28;;;;;;;21.55;8.75;;;;;;;-1.39;100.00;99785.72;5041959;28;20048;-74
2023/03/06 04:05:03;;;;;;;19.40;8.68;;;;;;;-1.37;100.00;99778.59;5035126;28;20370;-72
2023/03/06 04:07:29;;;;;;;18.02;7.45;;;;;;;-1.38;100.00;99778.69;5021799;28;20624;-73
2023/03/06 04:09:54;;;;;;;19.63;8.35;;;;;;;-1.41;100.00;99771.06;5023238;28;20151;-71
2023/03/06 04:12:20;;;;;;;21.60;9.60;;;;;;;-1.46;100.00;99766.16;5026418;28;20097;-72
2023/03/06 04:14:46;;;;;;;19.65;9.25;;;;;;;-1.53;100.00;99770.16;5039319;28;20106;-71
2023/03/06 04:17:11;;;;;;;25.73;9.95;;;;;;;-1.54;100.00;99760.66;5027432;28;20370;-72
2023/03/06 04:19:37;;;;;;;21.02;9.43;;;;;;;-1.57;100.00;99755.63;5021602;28;20029;-72
2023/03/06 04:22:03;;;;;;;23.42;9.07;;;;;;;-1.61;100.00;99748.94;5027369;28;20048;-75
2023/03/06 04:24:30;;;;;;;22.50;9.65;;;;;;;-1.59;100.00;99742.66;5023787;28;20033;-71
2023/03/06 04:26:56;;;;;;;21.02;10.05;;;;;;;-1.52;100.00;99750.91;5033795;28;20423;-71
2023/03/06 04:29:22;;;;;;;28.20;10.45;;;;;;;-1.57;100.00;99746.00;5026286;28;20516;-72
2023/03/06 04:31:48;;;;;;;19.08;10.00;;;;;;;-1.50;100.00;99749.00;5038570;28;20033;-74
2023/03/06 04:34:13;;;;;;;21.13;9.32;;;;;;;-1.56;100.00;99749.44;5026746;28;20025;-73
2023/03/06 04:36:43;;;;;;;24.52;10.20;;;;;;;-1.58;100.00;99741.69;5006702;28;20482;-71
2023/03/06 04:39:11;;;;;;;24.33;9.43;;;;;;;-1.62;100.00;99744.63;5023337;28;20390;-72
2023/03/06 04:41:38;;;;;;;22.92;8.98;;;;;;;-1.66;100.00;99730.09;5020906;28;20037;-71
2023/03/06 04:44:03;;;;;;;20.13;8.93;;;;;;;-1.70;100.00;99734.72;5042655;28;20425;-72
2023/03/06 04:46:28;;;;;;;26.10;9.90;;;;;;;-1.67;100.00;99728.44;5040783;28;20032;-72
2023/03/06 04:48:54;;;;;;;20.58;9.27;;;;;;;-1.67;100.00;99724.03;5023117;28;20111;-71
2023/03/06 04:51:19;;;;;;;28.10;10.55;;;;;;;-1.61;100.00;99733.25;5042184;28;20063;-71
2023/03/06 04:53:44;;;;;;;25.10;11.40;;;;;;;-1.68;100.00;99727.59;5038528;28;20129;-72
2023/03/06 04:56:10;;;;;;;26.85;10.98;;;;;;;-1.66;100.00;99730.94;5040549;28;20035;-71
2023/03/06 04:58:35;;;;;;;22.58;9.57;;;;;;;-1.65;100.00;99735.22;5038519;28;20155;-71
2023/03/06 05:01:01;;;;;;;26.90;10.40;;;;;;;-1.70;100.00;99729.50;5040528;28;20032;-71
2023/03/06 05:03:26;;;;;;;23.13;10.20;;;;;;;-1.72;100.00;99721.75;5039310;28;20036;-72
2023/03/06 05:05:52;;;;;;;25.00;10.10;;;;;;;-1.73;100.00;99720.09;5040004;28;20409;-73
2023/03/06 05:08:17;;;;;;;21.70;10.68;;;;;;;-1.78;100.00;99716.97;5040625;28;20037;-73
2023/03/06 05:10:43;;;;;;;23.40;8.73;;;;;;;-1.82;100.00;99702.41;5037407;28;20052;-75
2023/03/06 05:13:09;;;;;;;;;;;;;;;-1.85;100.00;99705.25;5042757;28;20039;-73
2023/03/06 05:15:34;;;;;;;24.55;9.75;;;;;;;-1.89;100.00;99697.72;5038382;28;19913;-73
2023/03/06 05:17:59;;;;;;;22.05;9.20;;;;;;;-2.01;100.00;99688.97;5040220;28;20147;-71
2023/03/06 05:20:25;;;;;;;42.70;10.52;;;;;;;-2.03;100.00;99688.25;5039124;28;20120;-71
2023/03/06 05:22:50;;;;;;;26.55;11.35;;;;;;;-2.05;100.00;99692.75;5041968;28;20064;-71
2023/03/06 05:25:16;;;;;;;22.65;9.50;;;;;;;-1.99;100.00;99702.75;5040063;28;20539;-72
2023/03/06 05:27:42;;;;;;;27.10;10.27;;;;;;;-1.99;100.00;99693.16;5038785;28;20033;-73
2023/03/06 05:30:11;;;;;;;38.63;12.23;;;;;;;-1.98;100.00;99696.59;5042911;28;20068;-75
2023/03/06 05:32:36;;;;;;;27.00;11.80;;;;;;;-2.07;100.00;99684.16;5020486;28;20033;-71
2023/03/06 05:35:03;;;;;;;43.67;11.48;;;;;;;-2.09;100.00;99686.03;5040287;28;20110;-71
2023/03/06 05:37:29;;;;;;;29.83;11.27;;;;;;;-2.07;100.00;99692.84;5038714;28;20048;-71
2023/03/06 05:39:54;;;;;;;25.30;10.13;;;;;;;-2.10;100.00;99689.63;5041915;28;20029;-72
2023/03/06 05:42:20;;;;;;;30.20;10.98;;;;;;;-2.14;100.00;99689.81;5044648;28;20029;-71
2023/03/06 05:44:46;;;;;;;24.88;10.80;;;;;;;-2.15;100.00;99698.63;5026888;28;20040;-72
2023/03/06 05:47:11;;;;;;;27.00;11.57;;;;;;;-2.17;100.00;99695.25;5027096;28;20025;-71
2023/03/06 05:49:37;;;;;;;22.42;10.10;;;;;;;-2.09;100.00;99701.75;5044766;28;20032;-71
2023/03/06 05:52:04;;;;;;;25.92;9.98;;;;;;;-2.13;100.00;99699.34;5044702;28;20075;-75
2023/03/06 05:54:31;;;;;;;26.70;10.70;;;;;;;-2.13;100.00;99699.34;5043111;28;20466;-72
2023/03/06 05:56:56;;;;;;;27.23;11.30;;;;;;;-2.07;100.00;99705.09;5036499;28;20028;-71
2023/03/06 05:59:26;;;;;;;26.02;10.65;;;;;;;-2.01;100.00;99704.66;5043648;28;20033;-72
2023/03/06 06:01:56;;;;;;;28.00;10.70;;;;;;;-2.06;100.00;99698.91;5021834;28;20108;-72
2023/03/06 06:04:23;;;;;;;25.33;10.45;;;;;;;-2.09;100.00;99692.09;5041177;28;20436;-71
2023/03/06 06:06:57;;;;;;;30.08;9.70;;;;;;;-2.04;100.00;99697.84;5040962;28;20045;-72
2023/03/06 06:09:24;;;;;;;24.75;9.82;;;;;;;-2.02;100.00;99697.75;5026756;28;20067;-75
2023/03/06 06:11:51;;;;;;;33.03;12.85;;;;;;;-1.97;100.00;99703.47;5044171;28;20021;-73
2023/03/06 06:14:17;;;;;;;27.05;10.60;;;;;;;-1.98;100.00;99691.38;5044539;28;20052;-71
2023/03/06 06:16:43;;;;;;;23.75;10.30;;;;;;;-2.04;100.00;99694.41;5044261;28;20064;-71
2023/03/06 06:19:08;;;;;;;25.30;11.27;;;;;;;-2.05;100.00;99692.75;5044625;28;20055;-72
2023/03/06 06:21:34;;;;;;;25.75;10.88;;;;;;;-2.05;100.00;99697.97;5044233;28;20033;-71
2023/03/06 06:23:59;;;;;;;26.95;11.02;;;;;;;-2.08;100.00;99685.94;5042521;28;20021;-70
2023/03/06 06:26:25;;;;;;;25.98;11.23;;;;;;;-2.01;100.00;99688.97;5042091;28;20041;-73
2023/03/06 06:28:51;;;;;;;24.45;11.90;;;;;;;-1.98;100.00;99692.19;5040430;28;20060;-73
2023/03/06 06:31:16;;;;;;;;;;;;;;;-1.92;100.00;99683.06;5043871;28;20029;-71
2023/03/06 06:33:42;;;;;;;22.83;9.30;;;;;;;-1.93;100.00;99690.09;5045255;28;19913;-71
2023/03/06 06:36:18;;;;;;;25.30;9.15;;;;;;;-1.88;100.00;99687.13;5048069;28;20028;-73
2023/03/06 06:38:44;;;;;;;24.20;9.60;;;;;;;-1.85;100.00;99686.09;5046365;28;20409;-72
2023/03/06 06:41:09;;;;;;;25.85;9.20;;;;;;;-1.84;100.00;99685.97;5048924;28;20029;-71
2023/03/06 06:43:34;;;;;;;19.45;8.30;;;;;;;-1.84;100.00;99680.75;5029891;28;20033;-71
2023/03/06 06:46:00;;;;;;;30.92;10.07;;;;;;;-1.84;100.00;99674.69;5045911;28;20052;-71
2023/03/06 06:48:25;;;;;;;22.30;9.90;;;;;;;-1.83;100.00;99681.56;5047810;28;20029;-71
2023/03/06 06:50:55;;;;;;;36.35;10.32;;;;;;;-1.68;100.00;99690.13;5047438;28;20076;-72
2023/03/06 06:53:20;;;;;;;22.33;9.98;;;;;;;-1.59;100.00;99694.69;5047700;28;20045;-72
2023/03/06 06:55:46;;;;;;;22.92;9.20;;;;;;;-1.53;100.00;99695.06;5047496;28;20033;-71
2023/03/06 06:58:11;;;;;;;20.73;9.63;;;;;;;-1.49;100.00;99683.44;5029923;28;20367;-71
2023/03/06 07:00:36;;;;;;;25.48;10.95;;;;;;;-1.30;100.00;99690.78;5047509;28;20020;-71
2023/03/06 07:03:02;;;;;;;22.38;9.65;;;;;;;-1.02;100.00;99701.84;5047686;28;20118;-72
2023/03/06 07:05:27;;;;;;;19.40;9.68;;;;;;;-0.73;100.00;99706.69;5029797;28;20099;-73
2023/03/06 07:07:52;;;;;;;21.60;10.05;;;;;;;-0.48;100.00;99705.69;5029667;28;20036;-74
2023/03/06 07:10:18;;;;;;;22.50;9.73;;;;;;;-0.40;100.00;99686.72;5029479;28;20124;-73
2023/03/06 07:12:43;;;;;;;21.45;9.55;;;;;;;-0.04;100.00;99702.22;5019601;28;20029;-71
2023/03/06 07:15:12;;;;;;;18.27;8.05;;;;;;;0.25;100.00;99691.22;5047253;28;20037;-71
2023/03/06 07:17:37;;;;;;;21.55;9.55;;;;;;;0.37;100.00;99671.84;5029630;28;20029;-71
2023/03/06 07:20:05;;;;;;;17.63;9.02;;;;;;;0.79;100.00;99669.31;5027931;28;20513;-75
2023/03/06 07:22:31;;;;;;;17.52;8.88;;;;;;;0.78;100.00;99637.94;5030099;28;20037;-71
2023/03/06 07:24:56;;;;;;;16.77;8.02;;;;;;;1.14;100.00;99631.38;5028921;28;20155;-72
2023/03/06 07:27:22;;;;;;;15.27;7.68;;;;;;;1.46;100.00;99614.69;5029584;28;20029;-71
2023/03/06 07:29:47;;;;;;;17.00;7.15;;;;;;;1.82;100.00;99596.66;5029400;28;20102;-75
2023/03/06 07:32:13;;;;;;;16.95;7.45;;;;;;;1.73;100.00;99544.81;5046692;28;20044;-74
2023/03/06 07:34:38;;;;;;;14.20;8.18;;;;;;;1.98;100.00;99504.00;5040945;28;20034;-73
2023/03/06 07:37:04;;;;;;;14.40;6.20;;;;;;;2.23;100.00;99453.41;5046471;28;20366;-72
2023/03/06 07:39:29;;;;;;;17.98;6.85;;;;;;;2.28;100.00;99385.34;5046776;28;20033;-72
2023/03/06 07:41:56;;;;;;;15.43;6.20;;;;;;;2.88;100.00;99381.50;5045491;28;20029;-72
2023/03/06 07:44:22;;;;;;;12.60;5.78;;;;;;;2.45;100.00;99249.41;5046517;28;20291;-72
2023/03/06 07:46:47;;;;;;;9.95;5.80;;;;;;;2.22;100.00;99169.97;5028624;28;20032;-72
2023/03/06 07:49:13;;;;;;;15.87;5.60;;;;;;;1.75;100.00;99085.88;5046468;28;20462;-74
2023/03/06 07:51:38;;;;;;;;;;;;;;;2.30;100.00;99125.31;5046521;28;20041;-73
2023/03/06 07:54:04;;;;;;;14.93;6.20;;;;;;;3.05;100.00;99129.41;5046417;28;19941;-71
2023/03/06 07:56:29;;;;;;;10.00;5.07;;;;;;;3.23;100.00;99031.78;5026812;28;20056;-71
2023/03/06 07:58:54;;;;;;;10.50;5.22;;;;;;;3.57;100.00;98986.91;5045038;28;20033;-71
2023/03/06 08:01:22;;;;;;;7.30;4.07;;;;;;;3.87;100.00;98890.47;5046128;28;20025;-72
2023/03/06 08:03:48;;;;;;;10.45;5.15;;;;;;;3.40;100.00;98697.69;5044322;28;20493;-74
2023/03/06 08:06:19;;;;;;;9.32;4.55;;;;;;;3.41;100.00;98660.56;5046360;28;20358;-72
2023/03/06 08:08:46;;;;;;;10.55;3.90;;;;;;;3.48;100.00;98614.03;5028426;28;20120;-71
2023/03/06 08:11:13;;;;;;;9.65;4.22;;;;;;;3.17;100.00;98475.00;5045906;28;20115;-71
2023/03/06 08:13:39;;;;;;;5.78;3.45;;;;;;;2.64;100.00;98431.69;5046209;28;20029;-72
2023/03/06 08:16:05;;;;;;;9.93;3.65;;;;;;;3.32;100.00;98600.91;5045975;28;20079;-72
2023/03/06 08:18:30;;;;;;;10.38;3.50;;;;;;;3.90;100.00;98610.25;5046156;28;20033;-72
2023/03/06 08:21:06;;;;;;;8.95;3.15;;;;;;;4.28;100.00;98520.59;5045778;28;20060;-72
2023/03/06 08:23:33;;;;;;;8.65;3.72;;;;;;;5.20;100.00;98448.19;5046050;28;20037;-73
2023/03/06 08:26:01;;;;;;;7.25;2.95;;;;;;;5.89;100.00;98272.94;5045759;28;20075;-72
2023/03/06 08:28:27;;;;;;;8.27;3.30;;;;;;;6.06;100.00;97980.31;5024145;28;20504;-74
2023/03/06 08:30:52;;;;;;;;;;;;;;;6.12;100.00;97721.75;5045943;28;20032;-74
2023/03/06 08:33:18;;;;;;;8.05;3.00;;;;;;;5.87;100.00;97513.19;5045785;28;20018;-75
2023/03/06 08:35:43;;;;;;;5.20;2.80;;;;;;;5.70;100.00;97467.06;5045506;28;20048;-72
2023/03/06 08:38:08;;;;;;;7.30;2.60;;;;;;;6.07;100.00;97538.81;5045880;28;20032;-72
2023/03/06 08:40:34;;;;;;;6.43;2.70;;;;;;;6.41;100.00;97481.91;5045536;28;20061;-73
2023/03/06 08:42:59;;;;;;;7.10;2.60;;;;;;;6.05;100.00;97262.78;5028146;28;20039;-72
2023/03/06 08:45:24;;;;;;;8.23;2.60;;;;;;;6.79;100.00;97278.69;5045338;28;20040;-72
2023/03/06 08:47:50;;;;;;;5.90;2.53;;;;;;;7.56;100.00;97277.03;5045557;28;20051;-72
2023/03/06 08:50:16;;;;;;;8.77;3.03;;;;;;;7.87;96.86;97067.94;5027689;28;20029;-72
2023/03/06 08:52:41;;;;;;;4.53;2.25;;;;;;;7.82;94.05;96823.56;5044521;28;20111;-72
2023/03/06 08:55:07;;;;;;;5.20;2.37;;;;;;;7.57;93.38;96811.44;5027716;28;20565;-74
2023/03/06 08:57:32;;;;;;;5.97;2.53;;;;;;;7.87;91.81;96820.97;5045546;28;20934;-74
2023/03/06 08:59:57;;;;;;;5.27;2.70;;;;;;;8.13;90.32;96845.28;5045459;28;20037;-74
2023/03/06 09:02:23;;;;;;;4.60;2.10;;;;;;;8.38;88.60;96791.69;5045161;28;20421;-74
2023/03/06 09:04:48;;;;;;;5.37;2.73;;;;;;;7.65;87.04;96453.72;5045209;28;20440;-74
2023/03/06 09:07:13;;;;;;;7.83;2.80;;;;;;;8.01;87.41;96745.22;5045078;28;20116;-72
2023/03/06 09:09:39;;;;;;;8.87;2.60;;;;;;;8.01;86.02;96601.78;5045243;28;20072;-72
2023/03/06 09:12:04;;;;;;;5.00;2.13;;;;;;;7.98;85.28;96573.09;5044855;28;20079;-72
2023/03/06 09:14:31;;;;;;;7.72;2.40;;;;;;;8.48;85.51;96813.16;5025704;28;20049;-74
2023/03/06 09:16:56;;;;;;;5.90;2.30;;;;;;;8.48;83.46;96607.66;5043100;28;20028;-72
2023/03/06 09:19:22;;;;;;;6.43;2.40;;;;;;;8.19;83.35;96613.16;5027315;28;20039;-72
2023/03/06 09:21:48;;;;;;;6.77;1.47;;;;;;;8.95;81.82;96653.06;5045126;28;20043;-74
2023/03/06 09:24:13;;;;;;;6.85;2.42;;;;;;;8.94;79.64;96436.00;5045072;28;20399;-73
2023/03/06 09:26:39;;;;;;;4.55;2.17;;;;;;;8.39;78.19;96192.69;5027033;28;20036;-72
2023/03/06 09:29:05;;;;;;;4.82;1.90;;;;;;;8.85;77.73;96334.63;5045193;28;20040;-72
2023/03/06 09:31:30;;;;;;;5.63;1.80;;;;;;;7.79;76.47;95881.50;5044750;28;20025;-72
2023/03/06 09:33:56;;;;;;;4.18;1.58;;;;;;;8.14;77.07;96206.66;5036396;28;20413;-72
2023/03/06 09:36:22;;;;;;;5.35;1.80;;;;;;;7.93;76.10;96097.66;5044771;28;20482;-73
2023/03/06 09:38:48;;;;;;;2.50;1.52;;;;;;;7.24;76.90;96113.72;5045080;28;20059;-73
2023/03/06 09:41:25;;;;;;;6.35;1.38;;;;;;;6.83;76.92;96076.25;5044722;28;20031;-74
2023/03/06 09:44:13;;;;;;;8.05;1.88;;;;;;;6.20;78.73;96285.94;5044257;28;20037;-75
2023/03/06 09:47:12;;;;;;;3.28;1.10;;;;;;;6.57;79.12;96510.59;5026266;28;20041;-72
2023/03/06 09:49:46;;;;;;;10.88;1.83;;;;;;;7.56;78.93;96835.56;5044557;28;20025;-73
2023/03/06 09:52:25;;;;;;;3.35;1.33;;;;;;;7.58;77.76;96643.16;5043369;28;20037;-73
2023/03/06 09:54:57;;;;;;;6.28;1.70;;;;;;;7.25;76.28;96322.22;5044194;28;20044;-75
2023/03/06 09:57:30;;;;;;;5.13;1.38;;;;;;;6.60;76.64;96188.69;5044754;28;20060;-72
2023/03/06 10:00:00;;;;;;;5.78;1.75;;;;;;;6.72;77.95;96526.75;5044898;28;20497;-72
2023/03/06 10:02:34;;;;;;;2.33;1.23;;;;;;;7.40;78.24;96813.28;5041381;28;20029;-72
2023/03/06 10:05:03;;;;;;;11.25;2.67;;;;;;;7.88;78.10;96963.31;5039540;28;20099;-72
2023/03/06 10:07:45;;;;;;;9.02;1.50;;;;;;;7.60;76.04;96513.66;5048845;28;20026;-75
2023/03/06 10:10:17;;;;;;;5.43;2.00;;;;;;;8.08;75.14;96593.66;5048134;28;20036;-73
2023/03/06 10:12:52;;;;;;;3.25;1.30;;;;;;;6.92;75.18;96204.66;5028602;28;20107;-72
2023/03/06 10:15:34;;;;;;;9.02;1.35;;;;;;;6.20;75.48;96129.69;5048264;28;20032;-72
2023/03/06 10:18:01;;;;;;;3.55;0.93;;;;;;;6.27;76.71;96412.88;5023235;28;20033;-72
2023/03/06 10:20:52;;;;;;;5.53;1.30;;;;;;;5.59;77.17;96290.25;5047946;28;20548;-72
2023/03/06 10:23:39;;;;;;;5.97;1.35;;;;;;;5.80;77.84;96537.53;5030138;28;20048;-72
2023/03/06 10:26:31;;;;;;;7.05;1.33;;;;;;;5.83;78.27;96672.03;5026427;28;20566;-72
2023/03/06 10:29:11;;;;;;;9.57;1.48;;;;;;;7.12;78.46;97124.44;5024329;28;20082;-72
2023/03/06 10:31:47;;;;;;;8.70;1.92;;;;;;;7.63;75.25;96759.22;5047786;28;20041;-73
2023/03/06 10:34:27;;;;;;;4.25;0.95;;;;;;;7.40;75.51;96717.75;5048036;28;20140;-75
2023/03/06 10:36:52;;;;;;;3.67;0.85;;;;;;;7.59;74.95;96700.53;5047946;28;20033;-75
2023/03/06 10:39:21;;;;;;;10.13;1.52;;;;;;;8.07;76.17;97048.94;5048265;28;20524;-73
2023/03/06 10:41:48;;;;;;;2.63;1.27;;;;;;;8.42;74.78;96913.25;5043590;28;20433;-72
2023/03/06 10:44:13;;;;;;;4.13;1.58;;;;;;;8.70;73.30;96761.84;5029614;28;20524;-74
2023/03/06 10:46:41;;;;;;;5.53;1.83;;;;;;;9.05;72.24;96804.81;5030091;28;20049;-72
2023/03/06 10:49:13;;;;;;;5.82;1.15;;;;;;;8.95;69.77;96363.13;5048112;28;20090;-72
2023/03/06 10:51:38;;;;;;;3.53;1.40;;;;;;;9.27;69.35;96410.09;5029676;28;20044;-72
2023/03/06 10:54:13;;;;;;;2.83;1.03;;;;;;;9.04;68.97;96273.00;5030238;28;20108;-74
2023/03/06 10:56:40;;;;;;;3.72;1.30;;;;;;;8.01;67.65;95716.63;5042390;28;20124;-72
2023/03/06 10:59:07;;;;;;;7.00;1.10;;;;;;;7.27;67.00;95501.28;5029065;28;20032;-74
2023/03/06 11:01:33;;;;;;;6.07;1.08;;;;;;;8.28;67.58;96013.03;5042737;28;20043;-74
2023/03/06 11:04:15;;;;;;;3.80;1.08;;;;;;;8.99;66.41;96169.22;5043242;28;20020;-72
2023/03/06 11:06:41;;;;;;;4.72;1.85;;;;;;;8.75;65.98;95951.69;5024280;28;20038;-73
2023/03/06 11:09:20;;;;;;;;;;;;;;;8.99;66.44;96105.38;5043474;28;20075;-73
2023/03/06 11:11:45;;;;;;;3.42;1.63;;;;;;;8.03;64.62;95521.44;5040853;28;20385;-72
2023/03/06 11:14:17;;;;;;;3.53;1.30;;;;;;;7.31;64.66;95286.72;5028886;28;20027;-72
2023/03/06 11:16:56;;;;;;;4.38;1.08;;;;;;;8.21;64.77;95774.22;5026850;28;20037;-74
2023/03/06 11:19:27;;;;;;;4.35;0.95;;;;;;;9.19;64.11;96022.91;5044794;28;20594;-72
2023/03/06 11:21:59;;;;;;;3.42;0.93;;;;;;;8.32;63.01;95422.44;5046713;28;20035;-73
2023/03/06 11:24:29;;;;;;;4.95;1.80;;;;;;;8.01;63.00;95417.38;5046674;28;20486;-74
2023/03/06 11:27:00;;;;;;;5.78;1.30;;;;;;;8.67;62.91;95697.03;5047153;28;20037;-72
2023/03/06 11:29:26;;;;;;;2.58;1.00;;;;;;;9.36;62.28;95862.13;5047478;28;20119;-72